sensor_id;sensor_type;location;lat;lon;timestamp;temperature;humidity
5723;DHT22;2886;49.722;8.612;2023-04-01T00:02:18;11.00;99.90
5723;DHT22;2886;49.722;8.612;2023-04-01T00:04:43;11.00;99.90
5723;DHT22;2886;49.722;8.612;2023-04-01T00:07:09;11.00;99.90
5723;DHT22;2886;49.722;8.612;2023-04-01T00:09:36;11.00;99.90
5723;DHT22;2886;49.722;8.612;2023-04-01T00:12:02;11.00;99.90
5723;DHT22;2886;49.722;8.612;2023-04-01T00:14:27;11.00;99.90
5723;DHT22;2886;49.722;8.612;2023-04-01T00:16:53;11.00;99.90
5723;DHT22;2886;49.722;8.612;2023-04-01T00:19:19;11.00;99.90
5723;DHT22;2886;49.722;8.612;2023-04-01T00:21:45;11.10;99.90
5723;DHT22;2886;49.722;8.612;2023-04-01T00:24:11;11.10;99.90
5723;DHT22;2886;49.722;8.612;2023-04-01T00:26:37;11.10;99.90
5723;DHT22;2886;49.722;8.612;2023-04-01T00:29:03;11.20;99.90
5723;DHT22;2886;49.722;8.612;2023-04-01T00:31:29;11.20;99.90
5723;DHT22;2886;49.722;8.612;2023-04-01T00:33:55;11.20;99.90
5723;DHT22;2886;49.722;8.612;2023-04-01T00:36:22;11.20;99.90
5723;DHT22;2886;49.722;8.612;2023-04-01T00:38:49;11.20;99.90
5723;DHT22;2886;49.722;8.612;2023-04-01T00:41:16;11.20;99.90
5723;DHT22;2886;49.722;8.612;2023-04-01T00:43:48;11.20;99.90
5723;DHT22;2886;49.722;8.612;2023-04-01T00:46:14;11.20;99.90
5723;DHT22;2886;49.722;8.612;2023-04-01T00:48:43;11.20;99.90
5723;DHT22;2886;49.722;8.612;2023-04-01T00:51:13;11.20;99.90
5723;DHT22;2886;49.722;8.612;2023-04-01T00:53:43;11.20;99.90
5723;DHT22;2886;49.722;8.612;2023-04-01T00:56:10;11.20;99.90
5723;DHT22;2886;49.722;8.612;2023-04-01T00:58:50;11.20;99.90
5723;DHT22;2886;49.722;8.612;2023-04-01T01:01:17;11.20;99.90
5723;DHT22;2886;49.722;8.612;2023-04-01T01:03:42;11.20;99.90
5723;DHT22;2886;49.722;8.612;2023-04-01T01:06:15;11.30;99.90
5723;DHT22;2886;49.722;8.612;2023-04-01T01:09:06;11.30;99.90
5723;DHT22;2886;49.722;8.612;2023-04-01T01:11:52;11.30;99.90
5723;DHT22;2886;49.722;8.612;2023-04-01T01:17:38;11.30;99.90
5723;DHT22;2886;49.722;8.612;2023-04-01T01:31:12;11.30;99.90
5723;DHT22;2886;49.722;8.612;2023-04-01T01:36:35;11.20;99.90
5723;DHT22;2886;49.722;8.612;2023-04-01T01:39:06;11.20;99.90
5723;DHT22;2886;49.722;8.612;2023-04-01T01:41:34;11.20;99.90
5723;DHT22;2886;49.722;8.612;2023-04-01T01:44:03;11.10;99.90
5723;DHT22;2886;49.722;8.612;2023-04-01T01:46:30;11.10;99.90
5723;DHT22;2886;49.722;8.612;2023-04-01T01:48:57;11.10;99.90
5723;DHT22;2886;49.722;8.612;2023-04-01T01:51:27;11.10;99.90
5723;DHT22;2886;49.722;8.612;2023-04-01T01:53:53;11.10;99.90
5723;DHT22;2886;49.722;8.612;2023-04-01T01:56:22;11.10;99.90
5723;DHT22;2886;49.722;8.612;2023-04-01T01:58:51;11.10;99.90
5723;DHT22;2886;49.722;8.612;2023-04-01T02:01:29;11.10;99.90
5723;DHT22;2886;49.722;8.612;2023-04-01T02:03:57;11.10;99.90
5723;DHT22;2886;49.722;8.612;2023-04-01T02:06:26;11.10;99.90
5723;DHT22;2886;49.722;8.612;2023-04-01T02:08:56;11.00;99.90
5723;DHT22;2886;49.722;8.612;2023-04-01T02:11:28;11.00;99.90
5723;DHT22;2886;49.722;8.612;2023-04-01T02:14:09;11.10;99.90
5723;DHT22;2886;49.722;8.612;2023-04-01T02:19:06;11.00;99.90
5723;DHT22;2886;49.722;8.612;2023-04-01T02:21:37;11.10;99.90
5723;DHT22;2886;49.722;8.612;2023-04-01T02:24:08;11.10;99.90
5723;DHT22;2886;49.722;8.612;2023-04-01T02:26:35;11.10;99.90
5723;DHT22;2886;49.722;8.612;2023-04-01T02:29:02;11.10;99.90
5723;DHT22;2886;49.722;8.612;2023-04-01T02:31:29;11.10;99.90
5723;DHT22;2886;49.722;8.612;2023-04-01T02:33:56;11.10;99.90
5723;DHT22;2886;49.722;8.612;2023-04-01T02:36:22;11.10;99.90
5723;DHT22;2886;49.722;8.612;2023-04-01T02:38:49;11.10;99.90
5723;DHT22;2886;49.722;8.612;2023-04-01T02:41:16;11.10;99.90
5723;DHT22;2886;49.722;8.612;2023-04-01T02:43:42;11.00;99.90
5723;DHT22;2886;49.722;8.612;2023-04-01T02:46:07;11.00;99.90
5723;DHT22;2886;49.722;8.612;2023-04-01T02:48:33;11.00;99.90
5723;DHT22;2886;49.722;8.612;2023-04-01T02:50:59;11.00;99.90
5723;DHT22;2886;49.722;8.612;2023-04-01T02:53:24;11.00;99.90
5723;DHT22;2886;49.722;8.612;2023-04-01T02:55:50;10.90;99.90
5723;DHT22;2886;49.722;8.612;2023-04-01T02:58:17;10.90;99.90
5723;DHT22;2886;49.722;8.612;2023-04-01T03:00:43;10.90;99.90
5723;DHT22;2886;49.722;8.612;2023-04-01T03:03:09;10.90;99.90
5723;DHT22;2886;49.722;8.612;2023-04-01T03:05:35;10.90;99.90
5723;DHT22;2886;49.722;8.612;2023-04-01T03:08:01;10.90;99.90
5723;DHT22;2886;49.722;8.612;2023-04-01T03:10:26;10.80;99.90
5723;DHT22;2886;49.722;8.612;2023-04-01T03:12:52;10.80;99.90
5723;DHT22;2886;49.722;8.612;2023-04-01T03:15:18;10.80;99.90
5723;DHT22;2886;49.722;8.612;2023-04-01T03:17:44;10.80;99.90
5723;DHT22;2886;49.722;8.612;2023-04-01T03:20:10;10.80;99.90
5723;DHT22;2886;49.722;8.612;2023-04-01T03:22:36;10.80;99.90
5723;DHT22;2886;49.722;8.612;2023-04-01T03:25:03;10.80;99.90
5723;DHT22;2886;49.722;8.612;2023-04-01T03:27:29;10.70;99.90
5723;DHT22;2886;49.722;8.612;2023-04-01T03:29:54;10.80;99.90
5723;DHT22;2886;49.722;8.612;2023-04-01T03:32:20;10.70;99.90
5723;DHT22;2886;49.722;8.612;2023-04-01T03:34:46;10.70;99.90
5723;DHT22;2886;49.722;8.612;2023-04-01T03:37:11;10.70;99.90
5723;DHT22;2886;49.722;8.612;2023-04-01T03:39:37;10.70;99.90
5723;DHT22;2886;49.722;8.612;2023-04-01T03:42:03;10.70;99.90
5723;DHT22;2886;49.722;8.612;2023-04-01T03:44:33;10.80;99.90
5723;DHT22;2886;49.722;8.612;2023-04-01T03:46:59;10.80;99.90
5723;DHT22;2886;49.722;8.612;2023-04-01T03:49:25;10.80;99.90
5723;DHT22;2886;49.722;8.612;2023-04-01T03:51:51;10.80;99.90
5723;DHT22;2886;49.722;8.612;2023-04-01T03:54:17;10.80;99.90
5723;DHT22;2886;49.722;8.612;2023-04-01T03:56:45;10.80;99.90
5723;DHT22;2886;49.722;8.612;2023-04-01T03:59:11;10.90;99.90
5723;DHT22;2886;49.722;8.612;2023-04-01T04:01:37;10.80;99.90
5723;DHT22;2886;49.722;8.612;2023-04-01T04:04:03;10.80;99.90
5723;DHT22;2886;49.722;8.612;2023-04-01T04:06:29;10.80;99.90
5723;DHT22;2886;49.722;8.612;2023-04-01T04:08:55;10.80;99.90
5723;DHT22;2886;49.722;8.612;2023-04-01T04:11:21;10.80;99.90
5723;DHT22;2886;49.722;8.612;2023-04-01T04:13:47;10.80;99.90
5723;DHT22;2886;49.722;8.612;2023-04-01T04:16:13;10.80;99.90
5723;DHT22;2886;49.722;8.612;2023-04-01T04:18:39;10.80;99.90
5723;DHT22;2886;49.722;8.612;2023-04-01T04:21:05;10.90;99.90
5723;DHT22;2886;49.722;8.612;2023-04-01T04:23:30;10.80;99.90
5723;DHT22;2886;49.722;8.612;2023-04-01T04:26:04;10.80;99.90
5723;DHT22;2886;49.722;8.612;2023-04-01T04:28:30;10.80;99.90
5723;DHT22;2886;49.722;8.612;2023-04-01T04:30:56;10.80;99.90
5723;DHT22;2886;49.722;8.612;2023-04-01T04:33:22;10.80;99.90
5723;DHT22;2886;49.722;8.612;2023-04-01T04:35:48;10.80;99.90
5723;DHT22;2886;49.722;8.612;2023-04-01T04:38:14;10.80;99.90
5723;DHT22;2886;49.722;8.612;2023-04-01T04:40:41;10.80;99.90
5723;DHT22;2886;49.722;8.612;2023-04-01T04:43:07;10.80;99.90
5723;DHT22;2886;49.722;8.612;2023-04-01T04:45:35;10.80;99.90
5723;DHT22;2886;49.722;8.612;2023-04-01T04:48:00;10.80;99.90
5723;DHT22;2886;49.722;8.612;2023-04-01T04:50:26;10.80;99.90
5723;DHT22;2886;49.722;8.612;2023-04-01T04:52:52;10.80;99.90
5723;DHT22;2886;49.722;8.612;2023-04-01T04:55:22;10.80;99.90
5723;DHT22;2886;49.722;8.612;2023-04-01T04:57:47;10.80;99.90
5723;DHT22;2886;49.722;8.612;2023-04-01T05:00:13;10.80;99.90
5723;DHT22;2886;49.722;8.612;2023-04-01T05:02:39;10.80;99.90
5723;DHT22;2886;49.722;8.612;2023-04-01T05:05:05;10.90;99.90
5723;DHT22;2886;49.722;8.612;2023-04-01T05:07:31;10.80;99.90
5723;DHT22;2886;49.722;8.612;2023-04-01T05:09:58;10.80;99.90
5723;DHT22;2886;49.722;8.612;2023-04-01T05:12:23;10.80;99.90
5723;DHT22;2886;49.722;8.612;2023-04-01T05:14:49;10.80;99.90
5723;DHT22;2886;49.722;8.612;2023-04-01T05:17:14;10.90;99.90
5723;DHT22;2886;49.722;8.612;2023-04-01T05:19:40;10.90;99.90
5723;DHT22;2886;49.722;8.612;2023-04-01T05:22:06;10.80;99.90
5723;DHT22;2886;49.722;8.612;2023-04-01T05:24:32;10.90;99.90
5723;DHT22;2886;49.722;8.612;2023-04-01T05:26:58;10.80;99.90
5723;DHT22;2886;49.722;8.612;2023-04-01T05:29:25;10.90;99.90
5723;DHT22;2886;49.722;8.612;2023-04-01T05:31:51;10.90;99.90
5723;DHT22;2886;49.722;8.612;2023-04-01T05:34:17;10.90;99.90
5723;DHT22;2886;49.722;8.612;2023-04-01T05:36:43;10.90;99.90
5723;DHT22;2886;49.722;8.612;2023-04-01T05:39:09;10.90;99.90
5723;DHT22;2886;49.722;8.612;2023-04-01T05:41:35;10.90;99.90
5723;DHT22;2886;49.722;8.612;2023-04-01T05:44:02;10.90;99.90
5723;DHT22;2886;49.722;8.612;2023-04-01T05:46:28;10.90;99.90
5723;DHT22;2886;49.722;8.612;2023-04-01T05:48:53;10.90;99.90
5723;DHT22;2886;49.722;8.612;2023-04-01T05:51:19;11.00;99.90
5723;DHT22;2886;49.722;8.612;2023-04-01T05:53:44;11.00;99.90
5723;DHT22;2886;49.722;8.612;2023-04-01T05:56:10;11.00;99.90
5723;DHT22;2886;49.722;8.612;2023-04-01T05:58:37;11.00;99.90
5723;DHT22;2886;49.722;8.612;2023-04-01T06:01:04;11.00;99.90
5723;DHT22;2886;49.722;8.612;2023-04-01T06:03:30;11.00;99.90
5723;DHT22;2886;49.722;8.612;2023-04-01T06:05:55;11.00;99.90
5723;DHT22;2886;49.722;8.612;2023-04-01T06:08:21;11.00;99.90
5723;DHT22;2886;49.722;8.612;2023-04-01T06:25:03;11.00;99.90
5723;DHT22;2886;49.722;8.612;2023-04-01T06:30:44;11.00;99.90
5723;DHT22;2886;49.722;8.612;2023-04-01T06:39:11;11.00;99.90
5723;DHT22;2886;49.722;8.612;2023-04-01T06:53:19;11.00;99.90
5723;DHT22;2886;49.722;8.612;2023-04-01T06:55:52;11.00;99.90
5723;DHT22;2886;49.722;8.612;2023-04-01T06:58:25;11.00;99.90
5723;DHT22;2886;49.722;8.612;2023-04-01T07:00:54;11.10;99.90
5723;DHT22;2886;49.722;8.612;2023-04-01T07:03:34;11.00;99.90
5723;DHT22;2886;49.722;8.612;2023-04-01T07:06:08;11.00;99.90
5723;DHT22;2886;49.722;8.612;2023-04-01T07:08:37;11.00;99.90
5723;DHT22;2886;49.722;8.612;2023-04-01T07:11:08;11.10;99.90
5723;DHT22;2886;49.722;8.612;2023-04-01T07:14:00;11.00;99.90
5723;DHT22;2886;49.722;8.612;2023-04-01T07:16:38;11.00;99.90
5723;DHT22;2886;49.722;8.612;2023-04-01T07:21:47;11.10;99.90
5723;DHT22;2886;49.722;8.612;2023-04-01T07:24:20;11.10;99.90
5723;DHT22;2886;49.722;8.612;2023-04-01T07:26:56;11.10;99.90
5723;DHT22;2886;49.722;8.612;2023-04-01T07:29:22;11.10;99.90
5723;DHT22;2886;49.722;8.612;2023-04-01T07:34:46;11.20;99.90
5723;DHT22;2886;49.722;8.612;2023-04-01T07:46:02;11.50;99.90
5723;DHT22;2886;49.722;8.612;2023-04-01T07:48:40;11.60;99.90
5723;DHT22;2886;49.722;8.612;2023-04-01T07:53:47;11.60;99.90
5723;DHT22;2886;49.722;8.612;2023-04-01T08:04:17;11.80;99.90
5723;DHT22;2886;49.722;8.612;2023-04-01T08:09:55;11.80;99.90
5723;DHT22;2886;49.722;8.612;2023-04-01T08:15:28;11.90;99.90
5723;DHT22;2886;49.722;8.612;2023-04-01T08:20:51;11.70;99.90
5723;DHT22;2886;49.722;8.612;2023-04-01T08:23:19;11.70;99.90
5723;DHT22;2886;49.722;8.612;2023-04-01T08:28:37;11.50;99.90
5723;DHT22;2886;49.722;8.612;2023-04-01T08:31:09;11.50;99.90
5723;DHT22;2886;49.722;8.612;2023-04-01T08:33:39;11.50;99.90
5723;DHT22;2886;49.722;8.612;2023-04-01T08:36:24;11.50;99.90
5723;DHT22;2886;49.722;8.612;2023-04-01T08:39:18;11.50;99.90
5723;DHT22;2886;49.722;8.612;2023-04-01T08:42:11;11.40;99.90
5723;DHT22;2886;49.722;8.612;2023-04-01T08:53:38;11.40;99.90
5723;DHT22;2886;49.722;8.612;2023-04-01T08:56:27;11.40;99.90
5723;DHT22;2886;49.722;8.612;2023-04-01T09:04:39;11.60;99.90
5723;DHT22;2886;49.722;8.612;2023-04-01T09:07:22;11.60;99.90
5723;DHT22;2886;49.722;8.612;2023-04-01T09:13:27;11.70;99.90
5723;DHT22;2886;49.722;8.612;2023-04-01T09:16:24;11.70;99.90
5723;DHT22;2886;49.722;8.612;2023-04-01T09:19:22;11.70;99.90
5723;DHT22;2886;49.722;8.612;2023-04-01T09:21:53;11.70;99.90
5723;DHT22;2886;49.722;8.612;2023-04-01T09:27:29;11.80;99.90
5723;DHT22;2886;49.722;8.612;2023-04-01T09:38:49;11.80;99.90
5723;DHT22;2886;49.722;8.612;2023-04-01T09:41:32;11.80;99.90
5723;DHT22;2886;49.722;8.612;2023-04-01T09:44:28;11.80;99.90
5723;DHT22;2886;49.722;8.612;2023-04-01T09:47:32;11.80;99.90
5723;DHT22;2886;49.722;8.612;2023-04-01T10:18:42;11.90;99.90
5723;DHT22;2886;49.722;8.612;2023-04-01T10:24:30;12.10;99.90
5723;DHT22;2886;49.722;8.612;2023-04-01T10:29:43;12.30;99.90
5723;DHT22;2886;49.722;8.612;2023-04-01T10:32:23;12.30;99.90
5723;DHT22;2886;49.722;8.612;2023-04-01T10:38:10;12.20;99.90
5723;DHT22;2886;49.722;8.612;2023-04-01T10:41:05;12.20;99.90
5723;DHT22;2886;49.722;8.612;2023-04-01T10:47:19;12.30;99.90
5723;DHT22;2886;49.722;8.612;2023-04-01T10:49:53;12.20;99.90
5723;DHT22;2886;49.722;8.612;2023-04-01T11:17:55;12.70;99.90
5723;DHT22;2886;49.722;8.612;2023-04-01T11:20:34;12.50;99.90
5723;DHT22;2886;49.722;8.612;2023-04-01T11:23:25;12.30;99.90
5723;DHT22;2886;49.722;8.612;2023-04-01T11:37:44;12.20;99.90
5723;DHT22;2886;49.722;8.612;2023-04-01T11:40:31;12.20;99.90
5723;DHT22;2886;49.722;8.612;2023-04-01T11:43:34;12.00;99.90
5723;DHT22;2886;49.722;8.612;2023-04-01T11:49:25;11.80;99.90
5723;DHT22;2886;49.722;8.612;2023-04-01T11:57:46;11.80;99.90
5723;DHT22;2886;49.722;8.612;2023-04-01T12:00:38;11.80;99.90
5723;DHT22;2886;49.722;8.612;2023-04-01T12:12:18;12.00;99.90
5723;DHT22;2886;49.722;8.612;2023-04-01T12:18:20;12.10;99.90
5723;DHT22;2886;49.722;8.612;2023-04-01T12:20:56;12.20;99.90
5723;DHT22;2886;49.722;8.612;2023-04-01T12:23:49;12.20;99.90
5723;DHT22;2886;49.722;8.612;2023-04-01T12:26:40;12.20;99.90
5723;DHT22;2886;49.722;8.612;2023-04-01T12:37:36;12.60;99.90
5723;DHT22;2886;49.722;8.612;2023-04-01T12:40:58;12.60;99.90
5723;DHT22;2886;49.722;8.612;2023-04-01T12:51:41;12.70;99.90
5723;DHT22;2886;49.722;8.612;2023-04-01T12:57:18;12.60;99.90
5723;DHT22;2886;49.722;8.612;2023-04-01T13:00:20;12.60;99.90
5723;DHT22;2886;49.722;8.612;2023-04-01T13:09:13;12.50;99.90
5723;DHT22;2886;49.722;8.612;2023-04-01T13:28:30;12.50;99.90
5723;DHT22;2886;49.722;8.612;2023-04-01T13:31:28;12.40;99.90
5723;DHT22;2886;49.722;8.612;2023-04-01T13:36:36;12.40;99.90
5723;DHT22;2886;49.722;8.612;2023-04-01T13:39:23;12.30;99.90
5723;DHT22;2886;49.722;8.612;2023-04-01T13:42:16;12.20;99.90
5723;DHT22;2886;49.722;8.612;2023-04-01T13:44:51;12.10;99.90
5723;DHT22;2886;49.722;8.612;2023-04-01T13:56:06;12.00;99.90
5723;DHT22;2886;49.722;8.612;2023-04-01T14:04:53;11.90;99.90
5723;DHT22;2886;49.722;8.612;2023-04-01T14:15:55;12.40;99.90
5723;DHT22;2886;49.722;8.612;2023-04-01T14:35:46;12.20;99.90
5723;DHT22;2886;49.722;8.612;2023-04-01T14:41:45;12.30;99.90
5723;DHT22;2886;49.722;8.612;2023-04-01T14:52:33;12.30;99.90
5723;DHT22;2886;49.722;8.612;2023-04-01T14:55:02;12.30;99.90
5723;DHT22;2886;49.722;8.612;2023-04-01T14:57:36;12.30;99.90
5723;DHT22;2886;49.722;8.612;2023-04-01T15:00:17;12.20;99.90
5723;DHT22;2886;49.722;8.612;2023-04-01T15:03:20;12.20;99.90
5723;DHT22;2886;49.722;8.612;2023-04-01T15:09:00;12.20;99.90
5723;DHT22;2886;49.722;8.612;2023-04-01T15:19:31;12.00;99.90
5723;DHT22;2886;49.722;8.612;2023-04-01T15:22:25;12.00;99.90
5723;DHT22;2886;49.722;8.612;2023-04-01T15:27:44;12.00;99.90
5723;DHT22;2886;49.722;8.612;2023-04-01T15:30:27;12.10;99.90
5723;DHT22;2886;49.722;8.612;2023-04-01T15:36:14;12.10;99.90
5723;DHT22;2886;49.722;8.612;2023-04-01T16:01:25;12.50;99.90
5723;DHT22;2886;49.722;8.612;2023-04-01T16:04:11;12.40;99.90
5723;DHT22;2886;49.722;8.612;2023-04-01T16:15:56;12.60;99.90
5723;DHT22;2886;49.722;8.612;2023-04-01T16:24:38;12.50;99.90
5723;DHT22;2886;49.722;8.612;2023-04-01T16:27:23;12.40;99.90
5723;DHT22;2886;49.722;8.612;2023-04-01T16:32:54;12.40;99.90
5723;DHT22;2886;49.722;8.612;2023-04-01T16:38:11;12.40;99.90
5723;DHT22;2886;49.722;8.612;2023-04-01T16:40:57;12.30;99.90
5723;DHT22;2886;49.722;8.612;2023-04-01T16:43:45;12.30;99.90
5723;DHT22;2886;49.722;8.612;2023-04-01T16:46:20;12.30;99.90
5723;DHT22;2886;49.722;8.612;2023-04-01T16:54:55;12.20;99.90
5723;DHT22;2886;49.722;8.612;2023-04-01T16:57:43;12.20;99.90
5723;DHT22;2886;49.722;8.612;2023-04-01T17:00:24;12.20;99.90
5723;DHT22;2886;49.722;8.612;2023-04-01T17:03:18;12.20;99.90
5723;DHT22;2886;49.722;8.612;2023-04-01T17:06:15;12.10;99.90
5723;DHT22;2886;49.722;8.612;2023-04-01T17:14:46;12.00;99.90
5723;DHT22;2886;49.722;8.612;2023-04-01T17:36:36;11.90;99.90
5723;DHT22;2886;49.722;8.612;2023-04-01T17:39:20;11.80;99.90
5723;DHT22;2886;49.722;8.612;2023-04-01T17:42:06;11.80;99.90
5723;DHT22;2886;49.722;8.612;2023-04-01T17:47:41;11.80;99.90
5723;DHT22;2886;49.722;8.612;2023-04-01T17:50:23;11.70;99.90
5723;DHT22;2886;49.722;8.612;2023-04-01T17:58:46;11.70;99.90
5723;DHT22;2886;49.722;8.612;2023-04-01T18:04:18;11.50;99.90
5723;DHT22;2886;49.722;8.612;2023-04-01T18:13:24;11.40;99.90
5723;DHT22;2886;49.722;8.612;2023-04-01T18:21:48;11.30;99.90
5723;DHT22;2886;49.722;8.612;2023-04-01T18:24:40;11.20;99.90
5723;DHT22;2886;49.722;8.612;2023-04-01T18:27:13;11.30;99.90
5723;DHT22;2886;49.722;8.612;2023-04-01T18:29:54;11.20;99.90
5723;DHT22;2886;49.722;8.612;2023-04-01T18:32:51;11.20;99.90
5723;DHT22;2886;49.722;8.612;2023-04-01T18:35:34;11.20;99.90
5723;DHT22;2886;49.722;8.612;2023-04-01T18:38:11;11.20;99.90
5723;DHT22;2886;49.722;8.612;2023-04-01T18:57:27;11.10;99.90
5723;DHT22;2886;49.722;8.612;2023-04-01T19:00:13;11.10;99.90
5723;DHT22;2886;49.722;8.612;2023-04-01T19:02:45;11.10;99.90
5723;DHT22;2886;49.722;8.612;2023-04-01T19:05:18;11.00;99.90
5723;DHT22;2886;49.722;8.612;2023-04-01T19:07:49;11.10;99.90
5723;DHT22;2886;49.722;8.612;2023-04-01T19:10:40;11.00;99.90
5723;DHT22;2886;49.722;8.612;2023-04-01T19:16:20;11.00;99.90
5723;DHT22;2886;49.722;8.612;2023-04-01T19:18:29;11.00;99.90
5723;DHT22;2886;49.722;8.612;2023-04-01T19:21:01;11.00;99.90
5723;DHT22;2886;49.722;8.612;2023-04-01T19:23:47;11.00;99.90
5723;DHT22;2886;49.722;8.612;2023-04-01T19:26:28;10.90;99.90
5723;DHT22;2886;49.722;8.612;2023-04-01T19:29:04;10.90;99.90
5723;DHT22;2886;49.722;8.612;2023-04-01T19:34:46;10.80;99.90
5723;DHT22;2886;49.722;8.612;2023-04-01T19:43:15;10.80;99.90
5723;DHT22;2886;49.722;8.612;2023-04-01T19:48:54;10.80;99.90
5723;DHT22;2886;49.722;8.612;2023-04-01T19:54:34;10.80;99.90
5723;DHT22;2886;49.722;8.612;2023-04-01T19:59:42;10.80;99.90
5723;DHT22;2886;49.722;8.612;2023-04-01T20:04:46;10.80;99.90
5723;DHT22;2886;49.722;8.612;2023-04-01T20:07:48;10.80;99.90
5723;DHT22;2886;49.722;8.612;2023-04-01T20:10:25;10.80;99.90
5723;DHT22;2886;49.722;8.612;2023-04-01T20:13:55;10.80;99.90
5723;DHT22;2886;49.722;8.612;2023-04-01T20:16:09;10.80;99.90
5723;DHT22;2886;49.722;8.612;2023-04-01T20:24:04;10.80;99.90
5723;DHT22;2886;49.722;8.612;2023-04-01T20:26:36;10.70;99.90
5723;DHT22;2886;49.722;8.612;2023-04-01T20:31:49;10.70;99.90
5723;DHT22;2886;49.722;8.612;2023-04-01T20:34:50;10.70;99.90
5723;DHT22;2886;49.722;8.612;2023-04-01T20:46:07;10.70;99.90
5723;DHT22;2886;49.722;8.612;2023-04-01T20:49:28;10.70;99.90
5723;DHT22;2886;49.722;8.612;2023-04-01T20:57:24;10.60;99.90
5723;DHT22;2886;49.722;8.612;2023-04-01T21:00:17;10.60;99.90
5723;DHT22;2886;49.722;8.612;2023-04-01T21:25:21;10.60;99.90
5723;DHT22;2886;49.722;8.612;2023-04-01T21:38:48;10.60;99.90
5723;DHT22;2886;49.722;8.612;2023-04-01T21:55:13;10.60;99.90
5723;DHT22;2886;49.722;8.612;2023-04-01T22:14:16;10.50;99.90
5723;DHT22;2886;49.722;8.612;2023-04-01T22:17:02;10.50;99.90
5723;DHT22;2886;49.722;8.612;2023-04-01T22:19:45;10.50;99.90
5723;DHT22;2886;49.722;8.612;2023-04-01T22:22:30;10.40;99.90
5723;DHT22;2886;49.722;8.612;2023-04-01T22:27:45;10.40;99.90
5723;DHT22;2886;49.722;8.612;2023-04-01T22:30:22;10.40;99.90
5723;DHT22;2886;49.722;8.612;2023-04-01T22:32:52;10.30;99.90
5723;DHT22;2886;49.722;8.612;2023-04-01T22:35:45;10.30;99.90
5723;DHT22;2886;49.722;8.612;2023-04-01T22:50:16;10.00;99.90
5723;DHT22;2886;49.722;8.612;2023-04-01T22:52:50;9.80;99.90
5723;DHT22;2886;49.722;8.612;2023-04-01T22:55:27;9.80;99.90
5723;DHT22;2886;49.722;8.612;2023-04-01T22:58:03;9.80;99.90
5723;DHT22;2886;49.722;8.612;2023-04-01T23:00:47;9.70;99.90
5723;DHT22;2886;49.722;8.612;2023-04-01T23:03:34;9.70;99.90
5723;DHT22;2886;49.722;8.612;2023-04-01T23:06:03;9.70;99.90
5723;DHT22;2886;49.722;8.612;2023-04-01T23:08:47;9.70;99.90
5723;DHT22;2886;49.722;8.612;2023-04-01T23:11:20;9.70;99.90
5723;DHT22;2886;49.722;8.612;2023-04-01T23:13:56;9.70;99.90
5723;DHT22;2886;49.722;8.612;2023-04-01T23:16:32;9.70;99.90
5723;DHT22;2886;49.722;8.612;2023-04-01T23:22:05;9.60;99.90
5723;DHT22;2886;49.722;8.612;2023-04-01T23:27:45;9.60;99.90
5723;DHT22;2886;49.722;8.612;2023-04-01T23:36:13;9.50;99.90
5723;DHT22;2886;49.722;8.612;2023-04-01T23:38:41;9.50;99.90
5723;DHT22;2886;49.722;8.612;2023-04-01T23:41:16;9.50;99.90
5723;DHT22;2886;49.722;8.612;2023-04-01T23:43:44;9.50;99.90
5723;DHT22;2886;49.722;8.612;2023-04-01T23:46:12;9.50;99.90
5723;DHT22;2886;49.722;8.612;2023-04-01T23:48:44;9.40;99.90
5723;DHT22;2886;49.722;8.612;2023-04-01T23:51:26;9.40;99.90
5723;DHT22;2886;49.722;8.612;2023-04-01T23:54:01;9.40;99.90
5723;DHT22;2886;49.722;8.612;2023-04-01T23:56:54;9.40;99.90
5723;DHT22;2886;49.722;8.612;2023-04-01T23:59:30;9.50;99.90
